Rain Current Weather (METAR) For Manchester Airport

All times on the weather descriptions are local

Observed at 00:50 - (31 days ago)

Rain

9°C

Rain
Clouds: Few Clouds at 1,500ft, Scattered Clouds at 2,000ft, Broken Clouds at 2,600ft
Wind: 270° at 28 knots, gusting 40 knots
Visibility: 5,000m
QNH: 0991
Dew Point: 8°C
Runway in Use: Runways 23L/R

Sunrise Today: 06:42
Sunset Today: 19:44

Forecast Weather (TAF) For Manchester Airport

Issued at 01:00 - (12 mins ago)


Runway in Use: Likely Runways 23L/R

Forecast valid until 01:00 on Tuesday

METAR/TAF RAW METAR / TAF

EGCC 302350Z AUTO 27028G40KT 5000 RA FEW015/// SCT020/// BKN026/// //////CB 09/08 Q0991

Weather Widget

Put weather from any of our airports on your website with our weather widget.

Find Another Search

Airport Search


Please Wait Please Wait - Loading
Close
Close

Login

Username:

Password:

Remember Me:

Remember me on this computer

Forgotten your password? Get a reset password sent to your registered e-mail address

Close

User Private Message

Subject:

Message: